Currently 38°F in Murrieta, California, USA
38°F
43°F / 38°F
calm
0.00"
Wednesday, January 18, 2017 6:03 AM PST

Murrieta, California Weather Summary
Last 36 Hours

Temperature Winds Hourly Humidity Dewpoint
Time Report Norm Report Norm Max Gusts Precip. Rpt. Norm Rpt. Norm Pressure
1Wed 06:03 AM  38.2°F  43°F  calm  1 mph  none  0.00"  96%  79%  37°F  37°F  30.18"
Wed 06:00 AM  38.3°F  43°F  calm  1 mph  3 mph  0.00"  95%  79%  37°F  37°F  30.19"
3Wed 05:32 AM  37.9°F  44°F  calm  1 mph  none  ----  95%  78%  37°F  37°F  30.19"
Wed 05:00 AM  38.6°F  44°F  calm  1 mph  5 mph  0.00"  95%  78%  37°F  37°F  30.19"
Wed 04:00 AM  39.7°F  44°F  3 mph SW  1 mph  6 mph  0.00"  94%  76%  38°F  37°F  30.19"
Wed 03:00 AM  41.0°F  45°F  calm  1 mph  8 mph  0.00"  92%  74%  39°F  37°F  30.19"
Wed 02:00 AM  41.3°F  46°F  3 mph SW  1 mph  7 mph  0.00"  94%  72%  40°F  37°F  30.20"
Wed 01:00 AM  42.6°F  47°F  calm  1 mph  7 mph  0.00"  93%  72%  41°F  38°F  30.20"
2Wed 12:00 AM  43.4°F  48°F  calm  1 mph  6 mph  0.00"  92%  70%  41°F  38°F  30.20"
Tue 11:00 PM  43.8°F  49°F  calm  1 mph  2 mph  0.00"  91%  68%  41°F  38°F  30.20"
Tue 10:00 PM  45.5°F  50°F  calm  1 mph  4 mph  0.00"  87%  65%  42°F  39°F  30.19"
Tue 09:00 PM  47.2°F  52°F  1 mph W  1 mph  6 mph  0.00"  80%  63%  41°F  39°F  30.17"
Tue 08:00 PM  49.0°F  53°F  1 mph SW  1 mph  9 mph  0.00"  78%  60%  42°F  39°F  30.16"
Tue 07:00 PM  51.8°F  55°F  calm  2 mph  7 mph  0.00"  71%  57%  42°F  40°F  30.14"
Tue 06:00 PM  54.5°F  58°F  1 mph SW  3 mph  5 mph  0.00"  57%  53%  39°F  40°F  30.14"
Tue 05:00 PM  57.3°F  61°F  2 mph NW  3 mph  7 mph  0.00"  45%  48%  35°F  41°F  30.12"
Tue 04:00 PM  62.8°F  65°F  3 mph NW  4 mph  none  0.00"  38%  42%  36°F  40°F  30.11"
Tue 03:00 PM  67.1°F  68°F  calm  5 mph  none  0.00"  25%  37%  29°F  40°F  30.11"
Tue 02:00 PM  66.2°F  68°F  calm  5 mph  11 mph  0.00"  28%  37%  31°F  40°F  30.09"
Tue 01:00 PM  66.2°F  68°F  calm  5 mph  none  0.00"  29%  37%  32°F  40°F  30.09"
Tue 12:00 PM  64.7°F  66°F  calm  4 mph  8 mph  0.00"  33%  41%  34°F  41°F  30.11"
Tue 11:00 AM  62.6°F  62°F  calm  4 mph  8 mph  0.00"  34%  48%  33°F  42°F  30.15"
Tue 10:00 AM  56.2°F  57°F  calm  2 mph  4 mph  0.00"  58%  58%  41°F  42°F  30.18"
Tue 09:00 AM  49.5°F  51°F  calm  2 mph  none  0.00"  71%  71%  40°F  41°F  30.17"
Tue 08:00 AM  39.5°F  45°F  calm  1 mph  none  0.00"  86%  79%  35°F  39°F  30.16"
Tue 07:00 AM  36.5°F  43°F  calm  1 mph  none  0.00"  88%  80%  33°F  37°F  30.14"
Tue 06:00 AM  38.0°F  43°F  calm  1 mph  6 mph  0.00"  85%  79%  34°F  37°F  30.12"
Tue 05:00 AM  39.8°F  44°F  calm  1 mph  3 mph  0.00"  81%  79%  34°F  37°F  30.11"
Tue 04:00 AM  41.2°F  44°F  1 mph S  1 mph  none  0.00"  78%  76%  35°F  37°F  30.10"
Tue 03:00 AM  40.8°F  45°F  calm  1 mph  2 mph  0.00"  81%  74%  35°F  37°F  30.09"
Tue 02:00 AM  42.4°F  46°F  calm  1 mph  5 mph  0.00"  76%  73%  35°F  38°F  30.10"
Tue 01:00 AM  43.2°F  47°F  calm  1 mph  none  0.00"  76%  72%  36°F  38°F  30.10"
Tue 12:00 AM  44.3°F  48°F  calm  1 mph  none  0.00"  78%  70%  38°F  38°F  30.11"
Mon 11:00 PM  45.4°F  49°F  calm  1 mph  5 mph  0.00"  76%  68%  38°F  38°F  30.10"
Mon 10:00 PM  47.3°F  50°F  calm  1 mph  2 mph  0.00"  76%  65%  40°F  39°F  30.11"
Mon 09:00 PM  49.1°F  52°F  calm  1 mph  none  0.00"  77%  63%  42°F  39°F  30.10"
Mon 08:00 PM  53.2°F  53°F  calm  2 mph  9 mph  0.00"  69%  61%  43°F  39°F  30.07"
Mon 07:00 PM  54.4°F  55°F  calm  2 mph  7 mph  0.00"  56%  57%  39°F  40°F  30.06"

  1. Current weather data. No green row appears if the current weather data is also the high or low for the current day.
  2. High temperature for the current day.
  3. Low temperature for the current day.

The Murrieta weather pages are a service of WeatherCurrents. Murrieta, California is located in the Temecula Valley, in southwestern Riverside County, at the junctions of the Interstate 15 and 215 highways.
Copyright ©Wed Jan 18 06:04:20 PST 2017  WeatherCurrents. All rights reserved. - Submit questions and comments - Privacy Policy

This page automatically refreshes every 10 minutes.